OOMS/MCT METAR and TAF weather

Enter ICAO airport designator
Station Type Date Time Source
OOMS METAR 2021/07/29 18:50 UTC NOAA

OOMS 291850Z VRB03KT 8000 NSC 38/24 Q0994 NOSIG


Station Type Date Time Source
OOMS Decoded METAR 2021/07/29 18:50 UTC NOAA

Seeb, International Airport, Oman (OOMS) 23-35N 058-17E 17M
Jul 29, 2021 - 02:50 PM EDT / 2021.07.29 1850 UTC
Wind: Variable at 3 MPH (3 KT):0
Visibility: 4 mile(s):0
Temperature: 100 F (38 C)
Heat index: 113.5 F (45.3 C):1
Dew Point: 75 F (24 C)
Relative Humidity: 45%
Pressure (altimeter): 29.35 in. Hg (0994 hPa)
ob: OOMS 291850Z VRB03KT 8000 NSC 38/24 Q0994 NOSIG
cycle: 19

Station Type Date Time Source
OOMS TAF 2021/07/29 18:06 UTC NOAA

TAF OOMS 291700Z 2918/3024 21019KT 6000 SCT040
BECMG 3007/3009 05012KT PROB30
TEMPO 3011/3014 29012G22KT 5000 -TSRA FEW025CB BKN035
BECMG 3017/3019 20018KT

Example: see airport list